createdAt,value
2019-01-26T00:00:34.317Z,61.67
2019-01-26T00:03:02.906Z,61.10
2019-01-26T00:05:31.555Z,54.77
2019-01-26T00:08:00.243Z,69.33
2019-01-26T00:10:29.070Z,70.40
2019-01-26T00:12:58.478Z,70.43
2019-01-26T00:15:27.119Z,72.83
2019-01-26T00:17:56.434Z,62.37
2019-01-26T00:20:24.947Z,68.67
2019-01-26T00:22:53.822Z,69.50
2019-01-26T00:25:22.446Z,72.47
2019-01-26T00:27:51.163Z,74.23
2019-01-26T00:30:19.833Z,82.43
2019-01-26T00:32:48.438Z,76.10
2019-01-26T00:35:17.702Z,83.30
2019-01-26T00:37:46.186Z,79.00
2019-01-26T00:40:15.130Z,76.50
2019-01-26T00:42:43.717Z,80.70
2019-01-26T00:45:18.946Z,76.37
2019-01-26T00:47:48.966Z,86.73
2019-01-26T00:50:17.707Z,80.83
2019-01-26T00:52:46.222Z,72.87
2019-01-26T00:55:14.765Z,74.13
2019-01-26T00:57:43.681Z,74.87
2019-01-26T01:00:14.698Z,72.75
2019-01-26T01:02:44.194Z,70.90
2019-01-26T01:05:12.851Z,76.87
2019-01-26T01:07:41.575Z,74.73
2019-01-26T01:10:11.688Z,68.87
2019-01-26T01:12:40.297Z,77.67
2019-01-26T01:15:10.183Z,73.23
2019-01-26T01:17:38.741Z,77.73
2019-01-26T01:22:50.461Z,67.63
2019-01-26T01:25:19.033Z,77.53
2019-01-26T01:27:47.614Z,81.87
2019-01-26T01:30:18.465Z,82.23
2019-01-26T01:32:47.053Z,75.67
2019-01-26T01:35:15.704Z,79.00
2019-01-26T01:37:46.875Z,79.50
2019-01-26T01:40:15.646Z,87.97
2019-01-26T01:42:44.181Z,74.43
2019-01-26T01:45:15.337Z,65.10
2019-01-26T01:47:43.920Z,77.50
2019-01-26T01:50:12.464Z,72.00
2019-01-26T01:52:41.106Z,75.60
2019-01-26T01:55:09.773Z,72.17
2019-01-26T01:57:38.373Z,85.07
2019-01-26T02:00:12.245Z,71.17
2019-01-26T02:02:40.717Z,68.90
2019-01-26T02:05:09.253Z,71.80
2019-01-26T02:07:37.893Z,77.97
2019-01-26T02:10:07.604Z,70.87
2019-01-26T02:12:37.001Z,64.90
2019-01-26T02:15:05.953Z,68.07
2019-01-26T02:17:34.777Z,68.37
2019-01-26T02:20:04.283Z,84.33
2019-01-26T02:22:33.573Z,69.47
2019-01-26T02:25:02.294Z,78.73
2019-01-26T02:27:30.761Z,74.83
2019-01-26T02:30:01.238Z,69.23
2019-01-26T02:32:29.817Z,71.93
2019-01-26T02:34:58.957Z,78.00
2019-01-26T02:37:27.485Z,80.57
2019-01-26T02:39:55.992Z,84.27
2019-01-26T02:42:24.467Z,80.00
2019-01-26T02:44:53.193Z,77.37
2019-01-26T02:47:21.697Z,72.55
2019-01-26T02:49:50.164Z,71.70
2019-01-26T02:52:18.646Z,79.80
2019-01-26T02:54:47.217Z,73.07
2019-01-26T02:57:16.102Z,73.17
2019-01-26T02:59:45.021Z,72.83
2019-01-26T03:02:13.506Z,75.13
2019-01-26T03:04:42.157Z,75.20
2019-01-26T03:07:10.808Z,72.57
2019-01-26T03:09:39.329Z,70.70
2019-01-26T03:12:07.858Z,73.33
2019-01-26T03:14:36.849Z,75.10
2019-01-26T03:17:06.555Z,64.50
2019-01-26T03:19:34.862Z,65.17
2019-01-26T03:22:03.737Z,75.60
2019-01-26T03:24:32.621Z,75.53
2019-01-26T03:27:01.389Z,68.27
2019-01-26T03:29:29.893Z,77.20
2019-01-26T03:31:58.374Z,77.90
2019-01-26T03:34:26.913Z,73.13
2019-01-26T03:36:55.421Z,63.67
2019-01-26T03:39:24.037Z,66.77
2019-01-26T03:41:53.413Z,66.60
2019-01-26T03:44:22.176Z,71.20
2019-01-26T03:46:50.670Z,73.90
2019-01-26T03:49:19.329Z,67.20
2019-01-26T03:51:48.909Z,66.53
2019-01-26T03:54:17.413Z,63.73
2019-01-26T03:56:45.929Z,61.50
2019-01-26T03:59:15.341Z,57.37
2019-01-26T04:01:44.001Z,70.20
2019-01-26T04:09:51.158Z,68.83
2019-01-26T04:12:20.021Z,68.00
2019-01-26T04:14:48.606Z,67.37
2019-01-26T04:17:22.013Z,73.50
2019-01-26T04:19:46.181Z,70.03
2019-01-26T04:22:14.757Z,79.73
2019-01-26T04:24:43.706Z,52.03
2019-01-26T04:27:12.280Z,74.27
2019-01-26T04:29:40.741Z,68.97
2019-01-26T04:32:09.229Z,71.87
2019-01-26T04:34:37.957Z,60.03
2019-01-26T04:37:06.477Z,72.23
2019-01-26T04:39:35.139Z,62.33
2019-01-26T04:42:03.823Z,70.63
2019-01-26T04:44:32.325Z,70.07
2019-01-26T04:47:00.830Z,63.73
2019-01-26T04:49:31.069Z,58.77
2019-01-26T04:51:59.537Z,69.27
2019-01-26T04:54:28.383Z,68.37
2019-01-26T04:56:57.026Z,61.13
2019-01-26T04:59:25.558Z,70.70
2019-01-26T05:01:54.064Z,65.50
2019-01-26T05:04:22.557Z,62.23
2019-01-26T05:06:51.072Z,71.63
2019-01-26T05:09:43.889Z,68.43
2019-01-26T05:12:12.529Z,63.47
2019-01-26T05:14:41.019Z,72.37
2019-01-26T05:17:09.822Z,63.30
2019-01-26T05:19:38.333Z,70.47
2019-01-26T05:22:06.809Z,80.93
2019-01-26T05:24:35.298Z,73.10
2019-01-26T05:27:03.926Z,70.80
2019-01-26T05:29:32.518Z,66.20
2019-01-26T05:32:01.102Z,67.10
2019-01-26T05:34:29.733Z,64.33
2019-01-26T05:36:58.308Z,62.00
2019-01-26T05:39:26.854Z,66.40
2019-01-26T05:41:55.813Z,73.13
2019-01-26T05:44:24.531Z,71.80
2019-01-26T05:46:53.201Z,72.20
2019-01-26T05:49:21.688Z,72.93
2019-01-26T05:51:50.201Z,61.30
2019-01-26T05:54:18.709Z,67.00
2019-01-26T05:56:47.213Z,67.23
2019-01-26T05:59:16.005Z,67.47
2019-01-26T06:01:44.541Z,65.90
2019-01-26T06:04:13.301Z,56.73
2019-01-26T06:06:41.856Z,68.57
2019-01-26T06:09:10.353Z,67.17
2019-01-26T06:11:40.153Z,69.37
2019-01-26T06:14:08.686Z,59.00
2019-01-26T06:16:37.188Z,66.97
2019-01-26T06:19:05.665Z,74.90
2019-01-26T06:21:34.314Z,59.93
2019-01-26T06:24:03.585Z,61.00
2019-01-26T06:26:32.200Z,60.77
2019-01-26T06:29:00.681Z,64.83
2019-01-26T06:31:29.180Z,54.37
2019-01-26T06:33:57.712Z,58.03
2019-01-26T06:36:26.448Z,54.27
2019-01-26T06:38:55.344Z,46.50
2019-01-26T06:41:23.852Z,51.83
2019-01-26T06:43:52.352Z,56.97
2019-01-26T06:46:21.005Z,47.77
2019-01-26T06:48:50.149Z,47.27
2019-01-26T06:51:18.621Z,54.77
2019-01-26T06:53:47.140Z,45.90
2019-01-26T06:56:15.645Z,47.10
2019-01-26T06:58:45.106Z,44.83
2019-01-26T07:01:13.620Z,46.08
2019-01-26T07:03:42.100Z,51.03
2019-01-26T07:06:18.000Z,47.23
2019-01-26T07:08:46.492Z,42.07
2019-01-26T07:11:15.001Z,55.80
2019-01-26T07:13:43.867Z,39.13
2019-01-26T07:16:13.184Z,38.83
2019-01-26T07:18:42.776Z,50.83
2019-01-26T07:21:11.592Z,50.87
2019-01-26T07:23:40.161Z,52.70
2019-01-26T07:26:08.673Z,49.87
2019-01-26T07:28:37.264Z,56.93
2019-01-26T07:31:06.619Z,43.90
2019-01-26T07:33:34.444Z,49.40
2019-01-26T07:36:03.068Z,47.20
2019-01-26T07:38:33.704Z,58.23
2019-01-26T07:41:02.723Z,49.07
2019-01-26T07:43:31.487Z,55.47
2019-01-26T07:46:12.916Z,51.17
2019-01-26T07:48:49.544Z,47.60
2019-01-26T07:51:27.363Z,53.90
2019-01-26T07:53:58.263Z,49.63
2019-01-26T07:56:34.736Z,49.17
2019-01-26T07:59:05.348Z,54.23
2019-01-26T08:01:34.403Z,57.23
2019-01-26T08:04:03.689Z,44.83
2019-01-26T08:06:42.595Z,49.03
2019-01-26T08:09:13.491Z,53.73
2019-01-26T08:11:42.580Z,50.43
2019-01-26T08:14:11.415Z,51.73
2019-01-26T08:16:42.371Z,51.53
2019-01-26T08:19:11.063Z,51.00
2019-01-26T08:21:41.567Z,56.27
2019-01-26T08:24:10.647Z,60.10
2019-01-26T08:26:40.367Z,62.47
2019-01-26T08:29:09.299Z,57.53
2019-01-26T08:31:37.862Z,57.43
2019-01-26T08:34:10.463Z,55.18
2019-01-26T08:36:39.535Z,52.90
2019-01-26T08:39:08.559Z,52.40
2019-01-26T08:41:37.175Z,55.20
2019-01-26T08:44:07.922Z,55.17
2019-01-26T08:46:36.475Z,52.87
2019-01-26T08:49:05.586Z,58.53
2019-01-26T08:51:34.231Z,50.23
2019-01-26T08:54:03.507Z,50.63
2019-01-26T08:56:32.166Z,55.70
2019-01-26T08:59:00.708Z,68.03
2019-01-26T09:01:29.382Z,57.80
2019-01-26T09:04:04.342Z,59.80
2019-01-26T09:06:36.466Z,53.57
2019-01-26T09:09:10.162Z,65.07
2019-01-26T09:12:09.638Z,53.37
2019-01-26T09:14:38.194Z,52.00
2019-01-26T09:17:06.674Z,51.20
2019-01-26T09:19:38.188Z,59.77
2019-01-26T09:22:04.859Z,60.97
2019-01-26T09:24:33.343Z,50.87
2019-01-26T09:27:01.844Z,75.63
2019-01-26T09:29:30.643Z,65.13
2019-01-26T09:31:59.244Z,58.77
2019-01-26T09:34:27.753Z,63.93
2019-01-26T09:36:56.371Z,63.83
2019-01-26T09:39:25.492Z,65.57
2019-01-26T09:41:54.064Z,61.27
2019-01-26T09:44:22.916Z,59.23
2019-01-26T09:46:51.383Z,66.20
2019-01-26T09:49:19.887Z,69.57
2019-01-26T09:51:48.447Z,66.87
2019-01-26T09:55:52.343Z,68.47
2019-01-26T09:58:24.455Z,63.27
2019-01-26T10:01:01.155Z,65.97
2019-01-26T10:06:22.835Z,61.63
2019-01-26T10:08:51.355Z,64.90
2019-01-26T10:11:19.851Z,77.40
2019-01-26T10:13:48.687Z,70.00
2019-01-26T10:16:17.570Z,59.70
2019-01-26T10:18:46.129Z,59.27
2019-01-26T10:21:14.740Z,68.57
2019-01-26T10:23:43.319Z,66.97
2019-01-26T10:26:11.903Z,64.27
2019-01-26T10:28:40.419Z,69.40
2019-01-26T10:31:09.527Z,77.33
2019-01-26T10:33:38.019Z,69.15
2019-01-26T10:36:25.648Z,59.27
2019-01-26T10:39:00.400Z,75.20
2019-01-26T10:41:33.384Z,66.70
2019-01-26T10:44:02.131Z,68.97
2019-01-26T10:46:30.981Z,76.40
2019-01-26T10:49:00.816Z,77.17
2019-01-26T10:51:28.360Z,70.20
2019-01-26T10:53:56.917Z,74.90
2019-01-26T10:56:25.417Z,75.97
2019-01-26T10:58:53.981Z,79.30
2019-01-26T11:01:24.518Z,70.80
2019-01-26T11:03:53.049Z,70.57
2019-01-26T11:06:21.656Z,69.57
2019-01-26T11:08:50.393Z,68.50
2019-01-26T11:11:20.089Z,64.87
2019-01-26T11:13:48.856Z,78.60
2019-01-26T11:16:17.452Z,69.73
2019-01-26T11:18:46.293Z,68.93
2019-01-26T11:21:14.952Z,70.55
2019-01-26T11:23:47.276Z,72.73
2019-01-26T11:26:15.885Z,77.58
2019-01-26T11:28:44.518Z,71.23
2019-01-26T11:31:13.106Z,68.83
2019-01-26T11:33:41.704Z,68.57
2019-01-26T11:36:10.413Z,78.17
2019-01-26T11:38:39.296Z,76.33
2019-01-26T11:41:07.830Z,72.23
2019-01-26T11:43:36.667Z,77.97
2019-01-26T11:46:10.471Z,75.07
2019-01-26T11:48:42.752Z,68.77
2019-01-26T11:51:17.480Z,73.63
2019-01-26T11:53:46.029Z,73.27
2019-01-26T11:56:19.607Z,72.90
2019-01-26T11:58:48.272Z,78.00
2019-01-26T12:01:21.071Z,83.17
2019-01-26T12:03:54.727Z,77.13
2019-01-26T12:06:27.167Z,76.83
2019-01-26T12:08:55.851Z,70.13
2019-01-26T12:11:24.654Z,74.83
2019-01-26T12:13:53.174Z,75.90
2019-01-26T12:16:26.856Z,76.13
2019-01-26T12:18:50.683Z,72.20
2019-01-26T12:22:22.002Z,72.73
2019-01-26T12:24:50.875Z,80.07
2019-01-26T12:27:19.820Z,79.97
2019-01-26T12:29:48.436Z,73.57
2019-01-26T12:32:16.942Z,78.27
2019-01-26T12:34:45.935Z,88.93
2019-01-26T12:37:14.600Z,86.30
2019-01-26T12:39:43.309Z,87.93
2019-01-26T12:42:12.140Z,80.73
2019-01-26T12:44:40.760Z,85.70
2019-01-26T12:47:09.563Z,78.73
2019-01-26T12:50:09.037Z,85.73
2019-01-26T12:52:37.766Z,80.37
2019-01-26T12:55:07.754Z,83.90
2019-01-26T12:57:36.374Z,87.73
2019-01-26T13:00:06.635Z,85.43
2019-01-26T13:02:35.238Z,94.73
2019-01-26T13:05:05.215Z,87.37
2019-01-26T13:07:33.794Z,84.13
2019-01-26T13:10:02.483Z,89.60
2019-01-26T13:12:31.115Z,92.80
2019-01-26T13:14:59.683Z,79.83
2019-01-26T13:17:28.250Z,84.87
2019-01-26T13:19:56.869Z,88.13
2019-01-26T13:22:25.702Z,89.43
2019-01-26T13:24:54.693Z,84.37
2019-01-26T13:27:28.010Z,83.63
2019-01-26T13:29:56.578Z,88.37
2019-01-26T13:32:25.329Z,98.30
2019-01-26T13:34:55.012Z,82.63
2019-01-26T13:37:22.513Z,90.53
2019-01-26T13:39:51.014Z,93.93
2019-01-26T13:42:19.530Z,88.90
2019-01-26T13:44:48.046Z,87.57
2019-01-26T13:47:16.586Z,91.22
2019-01-26T13:49:45.474Z,84.43
2019-01-26T13:52:14.009Z,88.67
2019-01-26T13:54:42.801Z,86.07
2019-01-26T13:57:11.355Z,98.83
2019-01-26T13:59:39.865Z,99.40
2019-01-26T14:02:08.663Z,92.20
2019-01-26T14:04:38.681Z,94.77
2019-01-26T14:07:06.110Z,88.40
2019-01-26T14:09:36.249Z,81.17
2019-01-26T14:12:04.969Z,93.63
2019-01-26T14:14:33.465Z,90.27
2019-01-26T14:17:02.377Z,97.93
2019-01-26T14:19:31.185Z,87.87
2019-01-26T14:21:59.701Z,98.67
2019-01-26T14:24:28.337Z,105.80
2019-01-26T14:26:58.205Z,96.60
2019-01-26T14:29:27.385Z,94.50
2019-01-26T14:31:55.874Z,96.10
2019-01-26T14:34:24.402Z,98.83
2019-01-26T14:36:52.966Z,112.90
2019-01-26T14:39:21.612Z,104.87
2019-01-26T14:41:50.126Z,109.80
2019-01-26T14:44:18.993Z,104.80
2019-01-26T14:46:47.502Z,96.77
2019-01-26T14:49:16.026Z,98.17
2019-01-26T14:51:45.223Z,87.20
2019-01-26T14:54:14.178Z,86.27
2019-01-26T14:56:42.742Z,91.40
2019-01-26T14:59:11.245Z,91.33
2019-01-26T15:01:39.796Z,97.00
2019-01-26T15:04:08.805Z,98.57
2019-01-26T15:06:41.989Z,102.43
2019-01-26T15:09:10.573Z,104.33
2019-01-26T15:11:39.096Z,105.43
2019-01-26T15:14:07.700Z,104.67
2019-01-26T15:16:36.394Z,106.70
2019-01-26T15:20:07.733Z,106.77
2019-01-26T15:22:36.253Z,107.50
2019-01-26T15:25:05.301Z,97.80
2019-01-26T15:27:34.189Z,104.30
2019-01-26T15:30:02.705Z,105.87
2019-01-26T15:32:31.361Z,111.00
2019-01-26T15:35:00.454Z,105.67
2019-01-26T15:37:29.005Z,102.80
2019-01-26T15:39:57.985Z,102.07
2019-01-26T15:42:26.582Z,112.57
2019-01-26T15:44:55.334Z,92.57
2019-01-26T15:47:23.947Z,103.20
2019-01-26T15:49:52.807Z,96.13
2019-01-26T15:52:21.368Z,91.20
2019-01-26T15:54:49.999Z,94.17
2019-01-26T15:57:18.510Z,101.20
2019-01-26T15:59:53.271Z,97.33
2019-01-26T16:02:16.366Z,97.23
2019-01-26T16:04:46.954Z,112.63
2019-01-26T16:07:16.642Z,100.60
2019-01-26T16:09:45.120Z,104.40
2019-01-26T16:12:13.652Z,94.23
2019-01-26T16:14:44.110Z,98.75
2019-01-26T16:17:12.966Z,100.00
2019-01-26T16:20:20.091Z,101.60
2019-01-26T16:22:42.262Z,94.17
2019-01-26T16:25:10.862Z,95.37
2019-01-26T16:27:39.822Z,91.77
2019-01-26T16:30:11.849Z,85.37
2019-01-26T16:32:40.718Z,92.73
2019-01-26T16:35:11.092Z,95.90
2019-01-26T16:37:39.594Z,96.93
2019-01-26T16:40:10.266Z,110.63
2019-01-26T16:42:39.491Z,99.30
2019-01-26T16:45:11.454Z,108.23
2019-01-26T16:47:40.022Z,103.17
2019-01-26T16:50:11.737Z,105.57
2019-01-26T16:52:40.207Z,110.67
2019-01-26T16:55:10.124Z,116.50
2019-01-26T16:57:38.710Z,99.80
2019-01-26T17:00:13.058Z,115.10
2019-01-26T17:02:41.990Z,122.37
2019-01-26T17:05:10.560Z,115.37
2019-01-26T17:07:39.060Z,110.03
2019-01-26T17:10:09.486Z,107.63
2019-01-26T17:12:38.275Z,100.40
2019-01-26T17:15:08.025Z,107.90
2019-01-26T17:17:36.557Z,101.27
2019-01-26T17:20:07.773Z,100.63
2019-01-26T17:22:36.298Z,100.63
2019-01-26T17:25:04.913Z,109.80
2019-01-26T17:27:33.445Z,114.17
2019-01-26T17:30:01.957Z,101.80
2019-01-26T17:32:30.473Z,102.30
2019-01-26T17:34:58.971Z,107.47
2019-01-26T17:37:27.447Z,111.13
2019-01-26T17:39:57.594Z,118.70
2019-01-26T17:42:26.085Z,108.50
2019-01-26T17:44:54.789Z,111.20
2019-01-26T17:47:23.609Z,109.43
2019-01-26T17:49:52.198Z,107.47
2019-01-26T17:52:20.660Z,111.80
2019-01-26T17:54:49.460Z,99.73
2019-01-26T17:57:18.225Z,98.53
2019-01-26T17:59:46.861Z,109.30
2019-01-26T18:02:15.416Z,121.77
2019-01-26T18:04:43.972Z,108.47
2019-01-26T18:07:12.478Z,98.87
2019-01-26T18:09:40.965Z,98.70
2019-01-26T18:12:09.496Z,97.10
2019-01-26T18:14:38.588Z,100.50
2019-01-26T18:17:07.136Z,89.63
2019-01-26T18:19:35.600Z,99.83
2019-01-26T18:22:04.804Z,114.87
2019-01-26T18:24:33.268Z,105.70
2019-01-26T18:27:01.764Z,102.60
2019-01-26T18:29:30.524Z,98.87
2019-01-26T18:31:59.148Z,92.60
2019-01-26T18:34:27.612Z,84.23
2019-01-26T18:36:56.456Z,78.37
2019-01-26T18:39:24.928Z,88.73
2019-01-26T18:41:53.836Z,81.90
2019-01-26T18:44:22.543Z,76.87
2019-01-26T18:46:51.052Z,74.90
2019-01-26T18:49:19.552Z,69.83
2019-01-26T18:51:48.388Z,77.60
2019-01-26T18:54:16.872Z,76.20
2019-01-26T18:56:45.340Z,69.10
2019-01-26T18:59:13.852Z,78.17
2019-01-26T19:01:42.404Z,78.27
2019-01-26T19:04:18.547Z,77.20
2019-01-26T19:06:47.087Z,70.00
2019-01-26T19:09:15.573Z,82.57
2019-01-26T19:11:44.233Z,84.30
2019-01-26T19:14:12.744Z,73.53
2019-01-26T19:16:41.614Z,65.23
2019-01-26T19:19:10.157Z,86.97
2019-01-26T19:21:38.693Z,78.00
2019-01-26T19:24:08.107Z,79.27
2019-01-26T19:26:36.630Z,83.30
2019-01-26T19:29:05.346Z,72.77
2019-01-26T19:31:33.920Z,83.83
2019-01-26T19:34:02.436Z,82.70
2019-01-26T19:36:30.956Z,81.20
2019-01-26T19:38:59.456Z,85.03
2019-01-26T19:41:27.951Z,88.83
2019-01-26T19:43:56.436Z,81.87
2019-01-26T19:46:24.960Z,81.87
2019-01-26T19:48:53.435Z,76.67
2019-01-26T19:51:21.928Z,82.40
2019-01-26T19:53:50.657Z,89.73
2019-01-26T19:56:19.247Z,86.97
2019-01-26T19:58:47.767Z,88.63
2019-01-26T20:01:16.363Z,89.47
2019-01-26T20:03:45.431Z,90.63
2019-01-26T20:06:14.239Z,91.90
2019-01-26T20:08:44.618Z,94.63
2019-01-26T20:11:13.146Z,89.37
2019-01-26T20:13:41.656Z,85.90
2019-01-26T20:16:10.223Z,90.97
2019-01-26T20:18:39.034Z,100.03
2019-01-26T20:21:07.570Z,99.30
2019-01-26T20:23:36.210Z,97.40
2019-01-26T20:26:04.959Z,107.00
2019-01-26T20:28:33.510Z,104.97
2019-01-26T20:31:02.087Z,112.87
2019-01-26T20:33:30.566Z,102.90
2019-01-26T20:35:59.775Z,105.87
2019-01-26T20:38:28.546Z,114.00
2019-01-26T20:40:57.234Z,109.47
2019-01-26T20:43:25.862Z,116.87
2019-01-26T20:45:54.370Z,122.93
2019-01-26T20:48:22.919Z,125.67
2019-01-26T20:50:51.438Z,104.90
2019-01-26T20:53:19.926Z,112.80
2019-01-26T20:55:48.599Z,111.67
2019-01-26T20:58:17.478Z,103.17
2019-01-26T21:00:46.006Z,123.80
2019-01-26T21:03:14.514Z,118.73
2019-01-26T21:05:43.038Z,108.93
2019-01-26T21:08:11.674Z,121.50
2019-01-26T21:10:40.303Z,117.13
2019-01-26T21:13:15.970Z,110.57
2019-01-26T21:15:37.910Z,117.37
2019-01-26T21:18:06.431Z,107.90
2019-01-26T21:20:35.498Z,112.40
2019-01-26T21:23:04.938Z,120.53
2019-01-26T21:25:33.458Z,113.73
2019-01-26T21:28:02.670Z,108.70
2019-01-26T21:30:31.202Z,107.03
2019-01-26T21:33:00.042Z,105.60
2019-01-26T21:35:28.557Z,103.50
2019-01-26T21:37:57.508Z,101.63
2019-01-26T21:40:28.474Z,103.63
2019-01-26T21:42:57.010Z,97.33
2019-01-26T21:45:25.554Z,94.53
2019-01-26T21:47:54.446Z,91.63
2019-01-26T21:50:25.189Z,99.20
2019-01-26T21:52:53.706Z,88.13
2019-01-26T21:55:22.286Z,90.00
2019-01-26T21:57:50.799Z,76.27
2019-01-26T22:00:22.347Z,88.80
2019-01-26T22:02:50.891Z,83.03
2019-01-26T22:05:19.434Z,88.83
2019-01-26T22:07:48.173Z,92.73
2019-01-26T22:10:17.866Z,84.77
2019-01-26T22:12:46.467Z,78.13
2019-01-26T22:15:17.011Z,81.43
2019-01-26T22:17:45.643Z,87.37
2019-01-26T22:20:16.880Z,87.57
2019-01-26T22:22:45.679Z,86.33
2019-01-26T22:25:14.332Z,87.92
2019-01-26T22:27:42.979Z,82.43
2019-01-26T22:30:14.595Z,75.17
2019-01-26T22:32:43.271Z,83.95
2019-01-26T22:35:11.840Z,80.40
2019-01-26T22:37:40.343Z,90.53
2019-01-26T22:40:11.976Z,77.53
2019-01-26T22:42:40.575Z,78.70
2019-01-26T22:45:10.091Z,78.43
2019-01-26T22:47:38.907Z,80.13
2019-01-26T22:50:09.286Z,77.70
2019-01-26T22:52:37.820Z,78.67
2019-01-26T22:55:08.163Z,73.47
2019-01-26T22:57:37.063Z,64.10
2019-01-26T23:00:12.475Z,64.10
2019-01-26T23:02:41.007Z,67.97
2019-01-26T23:05:21.327Z,73.73
2019-01-26T23:07:53.443Z,61.50
2019-01-26T23:10:47.858Z,63.37
2019-01-26T23:13:23.749Z,68.30
2019-01-26T23:16:03.502Z,69.13
2019-01-26T23:18:46.741Z,77.93
2019-01-26T23:21:28.362Z,79.13
2019-01-26T23:26:11.718Z,72.60
2019-01-26T23:28:52.889Z,77.57
2019-01-26T23:31:21.866Z,75.37
2019-01-26T23:33:51.993Z,79.70
2019-01-26T23:36:20.541Z,86.83
2019-01-26T23:38:49.038Z,84.23
2019-01-26T23:41:17.658Z,83.53
2019-01-26T23:43:46.193Z,95.40
2019-01-26T23:46:14.760Z,93.77
2019-01-26T23:48:43.475Z,91.50
2019-01-26T23:51:12.011Z,85.17
2019-01-26T23:53:40.819Z,89.70
2019-01-26T23:56:09.331Z,91.10
2019-01-26T23:58:37.848Z,81.37
